GIA122 WIPP-WIII
Flight info
| Callsign | GIA122 |
|---|---|
| Flight time | 0h 50m |
| Altitude | 31000 |
| Route | UDOKO T5 BUNIK |
| Aircraft | B738/M-SDE2E3FGHIRWXY/LB1 |
Departure
| Time | 2026-05-05 08:50 |
|---|---|
| Airport | Sultan Mahmud Badaruddin II Airport (WIPP) |
Arrival
| Time | 2026-05-05 09:40 |
|---|---|
| Airport | Soekarno-Hatta International Airport (WIII) |
| Time | Latitude | Longitude | Altitude | Speed | Heading |
|---|---|---|---|---|---|
| 2026-05-05 08:19 | -2.89553 | 104.70282 | 51 ft | 0 kts | 20° |
| 2026-05-05 08:40 | -2.89564 | 104.70278 | 51 ft | 2 kts | 15° |
| 2026-05-05 08:40 | -2.89580 | 104.70274 | 49 ft | 2 kts | 11° |
| 2026-05-05 08:40 | -2.89597 | 104.70272 | 51 ft | 2 kts | 1° |
| 2026-05-05 08:40 | -2.89613 | 104.70273 | 51 ft | 2 kts | 347° |
| 2026-05-05 08:41 | -2.89629 | 104.70278 | 49 ft | 2 kts | 327° |
| 2026-05-05 08:41 | -2.89641 | 104.70289 | 50 ft | 2 kts | 308° |
| 2026-05-05 08:41 | -2.89649 | 104.70301 | 48 ft | 1 kts | 298° |
| 2026-05-05 08:41 | -2.89652 | 104.70306 | 49 ft | 0 kts | 297° |
| 2026-05-05 08:43 | -2.89651 | 104.70304 | 49 ft | 1 kts | 297° |
| 2026-05-05 08:44 | -2.89650 | 104.70287 | 47 ft | 4 kts | 262° |
| 2026-05-05 08:44 | -2.89670 | 104.70255 | 51 ft | 7 kts | 230° |
| 2026-05-05 08:44 | -2.89707 | 104.70208 | 51 ft | 10 kts | 238° |
| 2026-05-05 08:44 | -2.89710 | 104.70136 | 49 ft | 11 kts | 286° |
| 2026-05-05 08:45 | -2.89679 | 104.70053 | 51 ft | 14 kts | 292° |
| 2026-05-05 08:45 | -2.89639 | 104.69955 | 49 ft | 15 kts | 292° |
| 2026-05-05 08:45 | -2.89600 | 104.69859 | 52 ft | 15 kts | 294° |
| 2026-05-05 08:45 | -2.89559 | 104.69768 | 52 ft | 14 kts | 294° |
| 2026-05-05 08:46 | -2.89520 | 104.69682 | 51 ft | 13 kts | 294° |
| 2026-05-05 08:46 | -2.89482 | 104.69600 | 53 ft | 13 kts | 294° |
| 2026-05-05 08:46 | -2.89449 | 104.69518 | 50 ft | 13 kts | 292° |
| 2026-05-05 08:46 | -2.89415 | 104.69439 | 54 ft | 12 kts | 292° |
| 2026-05-05 08:47 | -2.89384 | 104.69361 | 54 ft | 12 kts | 291° |
| 2026-05-05 08:47 | -2.89353 | 104.69285 | 54 ft | 12 kts | 292° |
| 2026-05-05 08:47 | -2.89324 | 104.69211 | 51 ft | 11 kts | 292° |
| 2026-05-05 08:47 | -2.89294 | 104.69140 | 51 ft | 11 kts | 292° |
| 2026-05-05 08:48 | -2.89270 | 104.69069 | 55 ft | 11 kts | 279° |
| 2026-05-05 08:48 | -2.89298 | 104.69005 | 56 ft | 10 kts | 224° |
| 2026-05-05 08:48 | -2.89357 | 104.68964 | 49 ft | 10 kts | 206° |
| 2026-05-05 08:48 | -2.89394 | 104.68965 | 54 ft | 4 kts | 142° |
| 2026-05-05 08:49 | -2.89407 | 104.68990 | 54 ft | 5 kts | 113° |
| 2026-05-05 08:49 | -2.89511 | 104.69234 | 53 ft | 85 kts | 113° |
| 2026-05-05 08:49 | -2.89857 | 104.70045 | 57 ft | 165 kts | 114° |
| 2026-05-05 08:49 | -2.90385 | 104.71233 | 539 ft | 205 kts | 115° |
| 2026-05-05 08:50 | -2.90908 | 104.72638 | 1305 ft | 214 kts | 107° |
| 2026-05-05 08:50 | -2.91324 | 104.74040 | 2409 ft | 212 kts | 107° |
| 2026-05-05 08:50 | -2.91767 | 104.75516 | 2837 ft | 236 kts | 107° |
| 2026-05-05 08:50 | -2.92282 | 104.77191 | 3204 ft | 263 kts | 108° |
| 2026-05-05 08:51 | -2.92838 | 104.78962 | 4071 ft | 270 kts | 108° |
| 2026-05-05 08:51 | -2.93410 | 104.80760 | 5035 ft | 273 kts | 108° |
| 2026-05-05 08:51 | -2.93996 | 104.82582 | 5971 ft | 277 kts | 109° |
| 2026-05-05 08:51 | -2.94592 | 104.84430 | 6843 ft | 281 kts | 109° |
| 2026-05-05 08:52 | -2.95228 | 104.86290 | 7698 ft | 285 kts | 115° |
| 2026-05-05 08:52 | -2.96276 | 104.87977 | 8558 ft | 287 kts | 126° |
| 2026-05-05 08:52 | -2.97473 | 104.89599 | 9437 ft | 292 kts | 127° |
| 2026-05-05 08:52 | -2.98698 | 104.91235 | 10222 ft | 296 kts | 127° |
| 2026-05-05 08:53 | -2.99934 | 104.92890 | 11033 ft | 298 kts | 126° |
| 2026-05-05 08:53 | -3.01177 | 104.94566 | 11846 ft | 301 kts | 126° |
| 2026-05-05 08:53 | -3.02429 | 104.96264 | 12625 ft | 305 kts | 126° |
| 2026-05-05 08:53 | -3.03692 | 104.97984 | 13417 ft | 309 kts | 126° |
| 2026-05-05 08:54 | -3.04970 | 104.99730 | 14145 ft | 313 kts | 125° |
| 2026-05-05 08:54 | -3.06258 | 105.01493 | 14858 ft | 315 kts | 125° |
| 2026-05-05 08:54 | -3.07557 | 105.03274 | 15578 ft | 318 kts | 125° |
| 2026-05-05 08:54 | -3.08865 | 105.05069 | 16287 ft | 321 kts | 125° |
| 2026-05-05 08:55 | -3.10185 | 105.06882 | 17009 ft | 324 kts | 125° |
| 2026-05-05 08:55 | -3.11519 | 105.08713 | 17705 ft | 327 kts | 125° |
| 2026-05-05 08:55 | -3.12868 | 105.10565 | 18345 ft | 330 kts | 125° |
| 2026-05-05 08:55 | -3.14223 | 105.12428 | 18929 ft | 333 kts | 125° |
| 2026-05-05 08:56 | -3.15597 | 105.14315 | 19520 ft | 336 kts | 125° |
| 2026-05-05 08:56 | -3.16980 | 105.16214 | 20109 ft | 339 kts | 124° |
| 2026-05-05 08:56 | -3.18375 | 105.18131 | 20695 ft | 342 kts | 124° |
| 2026-05-05 08:56 | -3.19784 | 105.20067 | 21274 ft | 346 kts | 124° |
| 2026-05-05 08:57 | -3.21206 | 105.22021 | 21847 ft | 349 kts | 124° |
| 2026-05-05 08:57 | -3.22640 | 105.23991 | 22414 ft | 352 kts | 124° |
| 2026-05-05 08:57 | -3.23598 | 105.25307 | 22789 ft | 354 kts | 124° |
| 2026-05-05 08:57 | -3.25052 | 105.27303 | 23331 ft | 357 kts | 125° |
| 2026-05-05 08:58 | -3.26744 | 105.29140 | 23722 ft | 363 kts | 137° |
| 2026-05-05 08:58 | -3.28671 | 105.30781 | 23776 ft | 364 kts | 139° |
| 2026-05-05 08:58 | -3.30633 | 105.32375 | 23794 ft | 364 kts | 139° |
| 2026-05-05 08:58 | -3.32604 | 105.33966 | 23799 ft | 364 kts | 139° |
| 2026-05-05 08:59 | -3.34568 | 105.35564 | 23803 ft | 364 kts | 139° |
| 2026-05-05 08:59 | -3.36543 | 105.37188 | 23853 ft | 374 kts | 139° |
| 2026-05-05 08:59 | -3.38587 | 105.38881 | 23940 ft | 388 kts | 139° |
| 2026-05-05 08:59 | -3.40699 | 105.40638 | 24035 ft | 401 kts | 139° |
| 2026-05-05 09:00 | -3.42872 | 105.42450 | 24153 ft | 412 kts | 139° |
| 2026-05-05 09:00 | -3.44251 | 105.43602 | 24280 ft | 417 kts | 139° |
| 2026-05-05 09:00 | -3.46487 | 105.45468 | 24599 ft | 420 kts | 139° |
| 2026-05-05 09:00 | -3.48734 | 105.47343 | 24991 ft | 421 kts | 139° |
| 2026-05-05 09:01 | -3.50988 | 105.49225 | 25369 ft | 423 kts | 139° |
| 2026-05-05 09:01 | -3.53255 | 105.51118 | 25709 ft | 426 kts | 139° |
| 2026-05-05 09:01 | -3.55535 | 105.53023 | 26048 ft | 428 kts | 139° |
| 2026-05-05 09:01 | -3.57830 | 105.54939 | 26377 ft | 431 kts | 139° |
| 2026-05-05 09:02 | -3.60137 | 105.56865 | 26710 ft | 433 kts | 139° |
| 2026-05-05 09:02 | -3.62457 | 105.58800 | 27045 ft | 436 kts | 139° |
| 2026-05-05 09:02 | -3.64794 | 105.60749 | 27368 ft | 438 kts | 139° |
| 2026-05-05 09:02 | -3.67141 | 105.62708 | 27677 ft | 441 kts | 139° |
| 2026-05-05 09:03 | -3.69504 | 105.64679 | 27994 ft | 443 kts | 139° |
| 2026-05-05 09:03 | -3.71873 | 105.66657 | 28305 ft | 445 kts | 139° |
| 2026-05-05 09:03 | -3.74261 | 105.68651 | 28606 ft | 448 kts | 139° |
| 2026-05-05 09:03 | -3.76656 | 105.70650 | 28895 ft | 450 kts | 139° |
| 2026-05-05 09:04 | -3.79068 | 105.72665 | 29177 ft | 452 kts | 139° |
| 2026-05-05 09:04 | -3.81490 | 105.74687 | 29466 ft | 455 kts | 139° |
| 2026-05-05 09:04 | -3.83924 | 105.76720 | 29773 ft | 456 kts | 139° |
| 2026-05-05 09:04 | -3.86359 | 105.78754 | 30108 ft | 456 kts | 139° |
| 2026-05-05 09:05 | -3.88789 | 105.80784 | 30470 ft | 454 kts | 139° |
| 2026-05-05 09:05 | -3.91217 | 105.82811 | 30785 ft | 455 kts | 139° |
| 2026-05-05 09:05 | -3.93634 | 105.84830 | 30799 ft | 451 kts | 139° |
| 2026-05-05 09:06 | -3.98458 | 105.88861 | 30825 ft | 453 kts | 139° |
| 2026-05-05 09:06 | -4.03313 | 105.92919 | 30831 ft | 455 kts | 139° |
| 2026-05-05 09:07 | -4.08185 | 105.96991 | 30829 ft | 457 kts | 139° |
| 2026-05-05 09:07 | -4.13064 | 106.01070 | 30826 ft | 457 kts | 139° |
| 2026-05-05 09:08 | -4.17938 | 106.05145 | 30828 ft | 456 kts | 139° |
| 2026-05-05 09:08 | -4.22793 | 106.09204 | 30826 ft | 454 kts | 139° |
| 2026-05-05 09:09 | -4.27630 | 106.13250 | 30829 ft | 452 kts | 139° |
| 2026-05-05 09:09 | -4.32416 | 106.17253 | 30828 ft | 450 kts | 139° |
| 2026-05-05 09:10 | -4.37219 | 106.21272 | 30830 ft | 450 kts | 139° |
| 2026-05-05 09:10 | -4.42023 | 106.25293 | 30831 ft | 450 kts | 139° |
| 2026-05-05 09:11 | -4.46831 | 106.29317 | 30835 ft | 450 kts | 139° |
| 2026-05-05 09:11 | -4.51638 | 106.33341 | 30835 ft | 451 kts | 139° |
| 2026-05-05 09:12 | -4.56457 | 106.37376 | 30831 ft | 451 kts | 139° |
| 2026-05-05 09:12 | -4.61277 | 106.41412 | 30831 ft | 452 kts | 139° |
| 2026-05-05 09:13 | -4.66100 | 106.45452 | 30834 ft | 452 kts | 139° |
| 2026-05-05 09:13 | -4.70917 | 106.49487 | 30802 ft | 447 kts | 139° |
| 2026-05-05 09:13 | -4.73280 | 106.51467 | 30411 ft | 440 kts | 139° |
| 2026-05-05 09:14 | -4.75616 | 106.53424 | 30121 ft | 437 kts | 139° |
| 2026-05-05 09:14 | -4.77976 | 106.55404 | 29870 ft | 447 kts | 139° |
| 2026-05-05 09:14 | -4.80382 | 106.57422 | 29568 ft | 454 kts | 139° |
| 2026-05-05 09:14 | -4.82810 | 106.59457 | 29249 ft | 454 kts | 139° |
| 2026-05-05 09:15 | -4.85224 | 106.61478 | 28938 ft | 452 kts | 140° |
| 2026-05-05 09:15 | -4.87842 | 106.63219 | 28607 ft | 453 kts | 153° |
| 2026-05-05 09:15 | -4.90700 | 106.64536 | 28333 ft | 451 kts | 155° |
| 2026-05-05 09:15 | -4.93574 | 106.65796 | 28026 ft | 450 kts | 155° |
| 2026-05-05 09:16 | -4.96438 | 106.67050 | 27728 ft | 448 kts | 155° |
| 2026-05-05 09:16 | -4.99397 | 106.67987 | 27440 ft | 447 kts | 170° |
| 2026-05-05 09:16 | -5.02451 | 106.68067 | 27358 ft | 433 kts | 184° |
| 2026-05-05 09:16 | -5.05367 | 106.67498 | 27094 ft | 422 kts | 197° |
| 2026-05-05 09:17 | -5.08095 | 106.66494 | 26427 ft | 416 kts | 199° |
| 2026-05-05 09:17 | -5.10800 | 106.65472 | 25580 ft | 415 kts | 199° |
| 2026-05-05 09:17 | -5.13505 | 106.64461 | 24803 ft | 413 kts | 199° |
| 2026-05-05 09:17 | -5.16188 | 106.63467 | 24137 ft | 409 kts | 199° |
| 2026-05-05 09:18 | -5.18845 | 106.62490 | 23500 ft | 404 kts | 198° |
| 2026-05-05 09:18 | -5.21474 | 106.61528 | 22763 ft | 400 kts | 198° |
| 2026-05-05 09:18 | -5.24070 | 106.60581 | 22039 ft | 395 kts | 198° |
| 2026-05-05 09:18 | -5.26636 | 106.59647 | 21338 ft | 390 kts | 198° |
| 2026-05-05 09:19 | -5.29178 | 106.58722 | 20650 ft | 386 kts | 198° |
| 2026-05-05 09:19 | -5.31689 | 106.57808 | 19980 ft | 382 kts | 198° |
| 2026-05-05 09:19 | -5.34175 | 106.56903 | 19324 ft | 378 kts | 198° |
| 2026-05-05 09:19 | -5.36605 | 106.56019 | 18697 ft | 375 kts | 198° |
| 2026-05-05 09:20 | -5.39044 | 106.55131 | 18063 ft | 371 kts | 198° |
| 2026-05-05 09:20 | -5.41462 | 106.54251 | 17347 ft | 368 kts | 198° |
| 2026-05-05 09:20 | -5.43854 | 106.53380 | 16686 ft | 364 kts | 198° |
| 2026-05-05 09:20 | -5.46220 | 106.52518 | 16023 ft | 360 kts | 198° |
| 2026-05-05 09:21 | -5.48563 | 106.51665 | 15376 ft | 356 kts | 198° |
| 2026-05-05 09:21 | -5.50882 | 106.50820 | 14740 ft | 353 kts | 198° |
| 2026-05-05 09:21 | -5.53180 | 106.49983 | 14126 ft | 350 kts | 198° |
| 2026-05-05 09:21 | -5.55450 | 106.49156 | 13651 ft | 343 kts | 198° |
| 2026-05-05 09:22 | -5.57670 | 106.48347 | 13171 ft | 337 kts | 198° |
| 2026-05-05 09:22 | -5.59869 | 106.47546 | 12873 ft | 335 kts | 198° |
| 2026-05-05 09:22 | -5.62032 | 106.46757 | 12836 ft | 326 kts | 198° |
| 2026-05-05 09:22 | -5.64135 | 106.45990 | 12817 ft | 317 kts | 198° |
| 2026-05-05 09:23 | -5.66141 | 106.45258 | 12795 ft | 297 kts | 198° |
| 2026-05-05 09:23 | -5.68031 | 106.44568 | 12638 ft | 283 kts | 198° |
| 2026-05-05 09:23 | -5.69834 | 106.43910 | 12543 ft | 268 kts | 198° |
| 2026-05-05 09:23 | -5.71562 | 106.43280 | 12241 ft | 262 kts | 198° |
| 2026-05-05 09:24 | -5.73298 | 106.42649 | 11580 ft | 273 kts | 198° |
| 2026-05-05 09:24 | -5.75072 | 106.42003 | 11360 ft | 264 kts | 198° |
| 2026-05-05 09:24 | -5.76768 | 106.41384 | 11106 ft | 257 kts | 198° |
| 2026-05-05 09:24 | -5.78447 | 106.40773 | 10735 ft | 256 kts | 198° |
| 2026-05-05 09:25 | -5.80119 | 106.40163 | 10379 ft | 255 kts | 198° |
| 2026-05-05 09:25 | -5.81782 | 106.39557 | 10026 ft | 253 kts | 198° |
| 2026-05-05 09:25 | -5.83434 | 106.38955 | 9685 ft | 252 kts | 198° |
| 2026-05-05 09:25 | -5.85074 | 106.38357 | 9303 ft | 250 kts | 198° |
| 2026-05-05 09:26 | -5.86709 | 106.37761 | 8922 ft | 249 kts | 198° |
| 2026-05-05 09:26 | -5.88316 | 106.37174 | 8564 ft | 244 kts | 198° |
| 2026-05-05 09:26 | -5.89910 | 106.36593 | 8041 ft | 244 kts | 198° |
| 2026-05-05 09:26 | -5.91488 | 106.36017 | 7560 ft | 244 kts | 198° |
| 2026-05-05 09:27 | -5.93075 | 106.35438 | 7154 ft | 241 kts | 198° |
| 2026-05-05 09:27 | -5.94672 | 106.34856 | 7072 ft | 247 kts | 198° |
| 2026-05-05 09:27 | -5.96280 | 106.34269 | 7023 ft | 245 kts | 198° |
| 2026-05-05 09:27 | -5.97866 | 106.33690 | 6930 ft | 241 kts | 198° |
| 2026-05-05 09:28 | -5.99427 | 106.33120 | 6668 ft | 237 kts | 198° |
| 2026-05-05 09:28 | -6.00980 | 106.32553 | 6300 ft | 238 kts | 198° |
| 2026-05-05 09:28 | -6.02353 | 106.32052 | 5970 ft | 238 kts | 198° |
| 2026-05-05 09:28 | -6.03907 | 106.31505 | 5627 ft | 235 kts | 191° |
| 2026-05-05 09:29 | -6.05503 | 106.31510 | 5274 ft | 228 kts | 168° |
| 2026-05-05 09:29 | -6.07059 | 106.31793 | 4935 ft | 227 kts | 167° |
| 2026-05-05 09:29 | -6.08609 | 106.32075 | 4602 ft | 226 kts | 167° |
| 2026-05-05 09:29 | -6.10124 | 106.32347 | 4413 ft | 213 kts | 167° |
| 2026-05-05 09:30 | -6.11547 | 106.32601 | 4180 ft | 204 kts | 167° |
| 2026-05-05 09:30 | -6.12943 | 106.32850 | 4089 ft | 207 kts | 167° |
| 2026-05-05 09:30 | -6.14355 | 106.33101 | 4064 ft | 207 kts | 167° |
| 2026-05-05 09:30 | -6.15769 | 106.33351 | 4033 ft | 206 kts | 167° |
| 2026-05-05 09:31 | -6.17188 | 106.33601 | 4015 ft | 207 kts | 167° |
| 2026-05-05 09:31 | -6.18593 | 106.33849 | 3996 ft | 203 kts | 167° |
| 2026-05-05 09:31 | -6.19960 | 106.34138 | 3983 ft | 195 kts | 156° |
| 2026-05-05 09:31 | -6.20912 | 106.34941 | 4004 ft | 168 kts | 123° |
| 2026-05-05 09:32 | -6.21519 | 106.35871 | 4009 ft | 153 kts | 121° |
| 2026-05-05 09:32 | -6.22100 | 106.36785 | 4005 ft | 154 kts | 121° |
| 2026-05-05 09:32 | -6.22653 | 106.37661 | 3989 ft | 147 kts | 121° |
| 2026-05-05 09:32 | -6.23201 | 106.38534 | 3997 ft | 146 kts | 121° |
| 2026-05-05 09:33 | -6.23620 | 106.39450 | 3987 ft | 148 kts | 95° |
| 2026-05-05 09:33 | -6.23397 | 106.40433 | 4018 ft | 146 kts | 75° |
| 2026-05-05 09:33 | -6.23156 | 106.41428 | 4013 ft | 147 kts | 77° |
| 2026-05-05 09:33 | -6.22882 | 106.42416 | 4012 ft | 150 kts | 74° |
| 2026-05-05 09:34 | -6.22553 | 106.43408 | 4008 ft | 149 kts | 72° |
| 2026-05-05 09:34 | -6.22198 | 106.44378 | 3973 ft | 150 kts | 71° |
| 2026-05-05 09:34 | -6.21819 | 106.45367 | 3794 ft | 151 kts | 70° |
| 2026-05-05 09:34 | -6.21437 | 106.46344 | 3596 ft | 149 kts | 69° |
| 2026-05-05 09:35 | -6.21058 | 106.47299 | 3410 ft | 145 kts | 69° |
| 2026-05-05 09:35 | -6.20308 | 106.49184 | 3042 ft | 146 kts | 69° |
| 2026-05-05 09:35 | -6.19934 | 106.50122 | 2870 ft | 144 kts | 69° |
| 2026-05-05 09:36 | -6.19562 | 106.51053 | 2684 ft | 143 kts | 69° |
| 2026-05-05 09:36 | -6.19187 | 106.51992 | 2508 ft | 147 kts | 69° |
| 2026-05-05 09:36 | -6.18807 | 106.52945 | 2313 ft | 147 kts | 69° |
| 2026-05-05 09:36 | -6.18428 | 106.53897 | 2121 ft | 146 kts | 68° |
| 2026-05-05 09:37 | -6.18054 | 106.54833 | 1922 ft | 143 kts | 69° |
| 2026-05-05 09:37 | -6.17688 | 106.55750 | 1743 ft | 140 kts | 68° |
| 2026-05-05 09:37 | -6.17326 | 106.56661 | 1575 ft | 142 kts | 66° |
| 2026-05-05 09:37 | -6.16948 | 106.57605 | 1387 ft | 147 kts | 67° |
| 2026-05-05 09:38 | -6.16567 | 106.58560 | 1195 ft | 147 kts | 67° |
| 2026-05-05 09:38 | -6.16188 | 106.59510 | 995 ft | 145 kts | 68° |
| 2026-05-05 09:38 | -6.15822 | 106.60432 | 831 ft | 139 kts | 66° |
| 2026-05-05 09:38 | -6.15464 | 106.61326 | 667 ft | 139 kts | 67° |
| 2026-05-05 09:39 | -6.15101 | 106.62236 | 507 ft | 139 kts | 66° |
| 2026-05-05 09:39 | -6.14736 | 106.63152 | 309 ft | 140 kts | 66° |
| 2026-05-05 09:39 | -6.14367 | 106.64075 | 112 ft | 144 kts | 66° |
| 2026-05-05 09:39 | -6.14005 | 106.64967 | 39 ft | 113 kts | 68° |
| 2026-05-05 09:40 | -6.13854 | 106.65348 | 38 ft | 22 kts | 66° |